Time;durP1;ratioP1;P1;durP2;ratioP2;P2;SDS_P1;SDS_P2;PMS_P1;PMS_P2;Temp;Humidity;BMP_temperature;BMP_pressure;BME280_temperature;BME280_humidity;BME280_pressure;Samples;Min_cycle;Max_cycle;Signal;HPM_P1;HPM_P2
2021/08/02 00:01:58;;;;;;;13.95;11.10;;;;;;;26.85;59.73;99877.03;5012472;28;20041;-68
2021/08/02 00:04:30;;;;;;;15.57;10.57;;;;;;;27.01;58.25;99859.59;5012355;28;20057;-67
2021/08/02 00:07:05;;;;;;;19.00;10.98;;;;;;;26.99;59.42;99860.59;5012250;28;20432;-67
2021/08/02 00:09:33;;;;;;;12.10;10.50;;;;;;;27.08;59.22;99876.13;5011990;28;20022;-71
2021/08/02 00:12:09;;;;;;;13.48;10.80;;;;;;;27.20;58.73;99877.38;5012110;28;20034;-67
2021/08/02 00:14:36;;;;;;;16.23;11.07;;;;;;;27.22;58.74;99873.75;5012175;28;20551;-67
2021/08/02 00:17:04;;;;;;;16.92;11.15;;;;;;;27.15;58.89;99871.41;5012414;28;20029;-67
2021/08/02 00:19:30;;;;;;;17.35;10.45;;;;;;;27.03;59.17;99864.81;5012076;28;20451;-66
2021/08/02 00:21:56;;;;;;;13.35;10.98;;;;;;;26.71;59.94;99849.28;5012034;28;20030;-67
2021/08/02 00:24:24;;;;;;;16.85;11.20;;;;;;;26.39;61.18;99854.06;5011242;28;20030;-67
2021/08/02 00:26:51;;;;;;;17.05;10.98;;;;;;;26.39;60.32;99874.38;5012329;28;20088;-67
2021/08/02 00:29:17;;;;;;;14.50;11.75;;;;;;;26.00;61.29;99831.66;5012155;28;20088;-67
2021/08/02 00:31:43;;;;;;;16.40;12.10;;;;;;;26.00;61.60;99866.06;5012062;28;20058;-67
2021/08/02 00:34:08;;;;;;;13.73;11.20;;;;;;;26.04;62.40;99885.31;5011692;28;20066;-67
2021/08/02 00:36:43;;;;;;;16.08;12.40;;;;;;;26.00;62.93;99886.38;5011894;28;20026;-67
2021/08/02 00:40:04;;;;;;;17.45;12.90;;;;;;;26.03;62.59;99882.75;5011927;28;20034;-67
2021/08/02 00:43:05;;;;;;;16.73;11.73;;;;;;;25.77;63.14;99877.47;4970774;28;20062;-66
2021/08/02 00:45:33;;;;;;;13.73;11.60;;;;;;;25.76;63.66;99886.31;4970724;28;20093;-67
2021/08/02 00:48:09;;;;;;;20.08;13.07;;;;;;;25.74;63.80;99888.16;4954657;28;20043;-71
2021/08/02 00:50:41;;;;;;;19.27;11.90;;;;;;;25.60;64.14;99890.44;4970689;28;20053;-67
2021/08/02 00:53:16;;;;;;;17.83;12.55;;;;;;;25.56;64.18;99888.78;4970656;28;20031;-66
2021/08/02 00:55:46;;;;;;;17.65;12.32;;;;;;;25.39;64.50;99899.97;4970533;28;20198;-71
2021/08/02 00:58:15;;;;;;;16.05;11.63;;;;;;;25.23;65.74;99889.00;4970568;28;20553;-67
2021/08/02 01:00:41;;;;;;;16.45;12.23;;;;;;;25.50;65.05;99885.44;4970432;28;20035;-67
2021/08/02 01:03:10;;;;;;;15.55;11.80;;;;;;;25.52;65.03;99891.56;4970204;28;20125;-67
2021/08/02 01:05:37;;;;;;;14.70;11.15;;;;;;;25.51;65.04;99888.97;4970443;28;20138;-67
2021/08/02 01:08:28;;;;;;;21.70;13.10;;;;;;;25.29;66.08;99902.84;4970075;28;20054;-65
2021/08/02 01:11:06;;;;;;;14.90;11.80;;;;;;;24.78;68.40;99898.34;4969984;28;20047;-67
2021/08/02 01:13:34;;;;;;;14.98;13.10;;;;;;;25.04;67.33;99889.59;4954256;28;20130;-67
2021/08/02 01:16:02;;;;;;;16.88;12.40;;;;;;;25.09;67.14;99892.09;4983713;28;20050;-69
2021/08/02 01:18:30;;;;;;;19.75;13.05;;;;;;;25.00;67.14;99894.09;5011496;28;20022;-66
2021/08/02 01:21:01;;;;;;;15.45;12.40;;;;;;;25.09;66.13;99898.22;5011722;28;20515;-67
2021/08/02 01:23:27;;;;;;;13.95;11.98;;;;;;;25.06;66.16;99902.75;5011645;28;20026;-67
2021/08/02 01:25:56;;;;;;;16.50;12.15;;;;;;;24.98;66.36;99898.56;5011505;28;20416;-67
2021/08/02 01:28:21;;;;;;;16.67;12.20;;;;;;;24.50;68.24;99891.22;5011691;28;20093;-67
2021/08/02 01:30:58;;;;;;;14.48;10.95;;;;;;;24.47;68.21;99886.06;5011389;28;20033;-67
2021/08/02 01:33:29;;;;;;;16.52;10.93;;;;;;;24.43;68.09;99887.91;5011541;28;20025;-67
2021/08/02 01:36:00;;;;;;;15.05;11.00;;;;;;;24.30;67.83;99847.84;5014555;28;20072;-65
2021/08/02 01:38:27;;;;;;;14.30;11.38;;;;;;;24.59;67.42;99896.25;5014885;28;20037;-70
2021/08/02 01:40:53;;;;;;;19.40;11.45;;;;;;;24.68;67.20;99892.47;5014792;28;20022;-67
2021/08/02 01:43:18;;;;;;;18.35;10.82;;;;;;;24.82;66.21;99892.06;5014709;28;20499;-67
2021/08/02 01:45:55;;;;;;;11.23;9.82;;;;;;;24.61;66.39;99910.25;5014615;28;20121;-67
2021/08/02 01:48:41;;;;;;;13.10;11.20;;;;;;;24.59;66.81;99882.19;5015159;28;20025;-67
2021/08/02 01:51:23;;;;;;;12.73;10.10;;;;;;;24.84;66.26;99906.09;5014943;28;20408;-68
2021/08/02 01:54:00;;;;;;;13.50;10.27;;;;;;;24.67;67.14;99914.50;4981847;28;20042;-67
2021/08/02 01:56:56;;;;;;;15.23;10.20;;;;;;;24.87;66.72;99911.25;4996221;28;20418;-67
2021/08/02 01:59:31;;;;;;;15.10;10.55;;;;;;;24.93;65.76;99900.50;4934839;29;20047;-66
2021/08/02 02:02:10;;;;;;;12.73;10.05;;;;;;;25.17;64.51;99898.84;4934689;29;20450;-66
2021/08/02 02:05:01;;;;;;;13.63;9.73;;;;;;;25.32;63.92;99913.34;4934838;29;20048;-67
2021/08/02 02:07:29;;;;;;;13.55;10.18;;;;;;;25.35;64.40;99909.72;4934572;29;20080;-66
2021/08/02 02:09:57;;;;;;;17.63;10.10;;;;;;;25.55;64.03;99916.16;4934752;29;20139;-66
2021/08/02 02:12:23;;;;;;;12.55;9.77;;;;;;;25.60;63.50;99912.44;4934555;29;20035;-66
2021/08/02 02:14:52;;;;;;;12.73;9.80;;;;;;;25.66;63.97;99912.22;4934519;29;20083;-67
2021/08/02 02:17:21;;;;;;;11.20;9.48;;;;;;;25.50;63.51;99885.44;4934683;29;20075;-70
2021/08/02 02:19:50;;;;;;;14.90;10.68;;;;;;;25.44;65.06;99921.81;4934498;29;20046;-67
2021/08/02 02:22:16;;;;;;;17.33;10.73;;;;;;;25.20;65.02;99888.19;4934208;29;20119;-67
2021/08/02 02:24:43;;;;;;;16.48;10.95;;;;;;;25.35;64.91;99913.22;4934587;29;20031;-67
2021/08/02 02:27:12;;;;;;;15.00;10.63;;;;;;;25.05;64.74;99846.44;4934536;29;20071;-69
2021/08/02 02:29:38;;;;;;;16.60;10.52;;;;;;;25.58;63.92;99908.97;4934215;29;20106;-67
2021/08/02 02:32:05;;;;;;;14.52;10.65;;;;;;;25.68;63.99;99930.66;4934294;29;20042;-67
2021/08/02 02:34:35;;;;;;;15.63;10.45;;;;;;;25.15;65.55;99916.53;4934334;29;20039;-65
2021/08/02 02:37:01;;;;;;;18.30;10.35;;;;;;;25.18;65.67;99957.81;4972030;28;20034;-67
2021/08/02 02:39:28;;;;;;;13.13;10.43;;;;;;;25.02;66.27;99963.59;5013702;28;20038;-67
2021/08/02 02:41:54;;;;;;;13.60;9.95;;;;;;;23.89;70.64;99971.16;5013778;28;20022;-67
2021/08/02 02:44:21;;;;;;;11.70;10.30;;;;;;;23.70;70.15;99924.19;5013738;28;20108;-67
2021/08/02 02:46:47;;;;;;;17.50;9.90;;;;;;;24.18;69.09;99944.00;5013018;28;20018;-67
2021/08/02 02:49:14;;;;;;;21.10;11.18;;;;;;;23.95;69.71;99949.94;5013724;28;20424;-67
2021/08/02 02:51:39;;;;;;;16.27;10.75;;;;;;;24.01;70.24;99964.72;4979493;28;20065;-67
2021/08/02 02:54:06;;;;;;;14.65;10.20;;;;;;;24.09;69.32;99932.84;5013386;28;20471;-68
2021/08/02 02:56:33;;;;;;;18.00;10.40;;;;;;;24.38;67.86;99940.81;5013259;28;20488;-67
2021/08/02 02:58:59;;;;;;;19.98;9.90;;;;;;;24.55;67.35;99952.66;5013399;28;20026;-66
2021/08/02 03:01:33;;;;;;;13.23;9.52;;;;;;;24.70;66.91;99946.97;5013249;28;20026;-67
2021/08/02 03:04:00;;;;;;;17.23;10.20;;;;;;;24.69;67.56;99958.41;4995012;28;20184;-67
2021/08/02 03:06:28;;;;;;;12.77;9.57;;;;;;;24.37;68.05;99931.19;5013211;28;20030;-66
2021/08/02 03:08:54;;;;;;;14.40;10.77;;;;;;;24.43;67.61;99958.31;5013255;28;20041;-67
2021/08/02 03:11:21;;;;;;;18.10;10.35;;;;;;;24.29;68.29;99964.81;5013490;28;20030;-66
2021/08/02 03:13:50;;;;;;;14.95;10.13;;;;;;;24.14;68.39;99936.22;5013075;28;20037;-67
2021/08/02 03:16:17;;;;;;;16.30;10.23;;;;;;;24.16;68.14;99937.94;5013091;28;20026;-65
2021/08/02 03:18:42;;;;;;;14.25;10.13;;;;;;;24.31;68.45;99965.66;5013142;28;20041;-66
2021/08/02 03:21:08;;;;;;;14.82;10.00;;;;;;;24.36;68.47;99973.41;5011664;28;20026;-67
2021/08/02 03:23:42;;;;;;;14.63;11.02;;;;;;;24.49;68.57;99973.97;5012872;28;20030;-67
2021/08/02 03:26:32;;;;;;;17.02;10.90;;;;;;;24.53;68.02;99965.88;5013060;28;20030;-66
2021/08/02 03:29:15;;;;;;;15.20;10.30;;;;;;;24.44;68.72;99973.22;5013160;28;20026;-65
2021/08/02 03:31:49;;;;;;;21.85;11.52;;;;;;;24.48;68.32;99969.59;5013114;28;20018;-66
2021/08/02 03:34:20;;;;;;;29.00;11.65;;;;;;;24.42;68.82;99975.03;5012694;28;20041;-66
2021/08/02 03:36:47;;;;;;;21.45;11.10;;;;;;;24.47;68.41;99978.41;5012900;28;20109;-67
2021/08/02 03:39:15;;;;;;;19.73;11.82;;;;;;;24.45;69.25;99982.84;5012866;28;20033;-67
2021/08/02 03:41:41;;;;;;;26.02;10.60;;;;;;;24.42;68.78;99977.66;5012958;28;20030;-67
2021/08/02 03:44:10;;;;;;;18.42;11.07;;;;;;;24.37;68.69;99964.59;5012753;28;20026;-67
2021/08/02 03:46:37;;;;;;;22.88;10.75;;;;;;;24.59;68.16;99964.84;5012682;28;20034;-71
2021/08/02 03:49:02;;;;;;;15.25;10.38;;;;;;;24.66;68.34;99969.09;5012951;28;20037;-67
2021/08/02 03:51:35;;;;;;;15.43;10.60;;;;;;;24.67;68.39;99965.53;5012820;28;20495;-67
2021/08/02 03:54:02;;;;;;;17.80;11.23;;;;;;;24.78;69.08;99966.97;5012485;28;20065;-67
2021/08/02 03:56:27;;;;;;;19.52;10.55;;;;;;;24.84;68.61;99974.72;5011388;28;20038;-65
2021/08/02 03:58:53;;;;;;;26.08;11.70;;;;;;;24.75;68.78;99985.53;5012135;28;20032;-67
2021/08/02 04:01:18;;;;;;;17.38;10.85;;;;;;;24.80;67.82;99971.31;5012287;28;20032;-67
2021/08/02 04:03:43;;;;;;;21.13;10.77;;;;;;;24.92;66.82;99959.50;5012290;28;20055;-70
2021/08/02 04:06:10;;;;;;;16.15;10.32;;;;;;;24.86;66.15;99946.47;5012406;28;20492;-70
2021/08/02 04:08:35;;;;;;;17.10;11.10;;;;;;;24.65;67.53;99940.94;5012154;28;20076;-67
2021/08/02 04:11:01;;;;;;;24.45;10.98;;;;;;;24.81;67.47;99953.69;5010884;28;20030;-67
2021/08/02 04:13:26;;;;;;;19.42;10.90;;;;;;;25.06;67.26;99959.09;5012132;28;20034;-66
2021/08/02 04:15:52;;;;;;;15.63;10.65;;;;;;;24.95;66.14;99943.56;5012207;28;20030;-67
2021/08/02 04:18:17;;;;;;;15.60;9.57;;;;;;;25.01;65.01;99961.88;5012280;28;20109;-65
2021/08/02 04:20:43;;;;;;;14.98;9.27;;;;;;;25.19;64.44;99959.56;5012247;28;20026;-67
2021/08/02 04:23:09;;;;;;;13.23;8.77;;;;;;;25.34;63.12;99959.06;5010229;28;20122;-67
2021/08/02 04:25:35;;;;;;;16.35;9.18;;;;;;;25.34;63.37;99964.34;5012138;28;20026;-67
2021/08/02 04:28:00;;;;;;;14.32;8.27;;;;;;;24.89;64.45;99949.03;5011790;28;20033;-66
2021/08/02 04:30:26;;;;;;;16.48;8.93;;;;;;;25.15;63.57;99972.00;5010728;28;20030;-67
2021/08/02 04:32:51;;;;;;;15.43;8.82;;;;;;;25.18;62.75;99979.84;5012074;28;20048;-67
2021/08/02 04:35:16;;;;;;;15.77;9.07;;;;;;;25.15;63.37;99976.44;5012012;28;20408;-67
2021/08/02 04:37:42;;;;;;;12.23;8.65;;;;;;;25.11;63.22;99967.72;5011970;28;20026;-67
2021/08/02 04:40:08;;;;;;;18.08;9.95;;;;;;;25.02;64.02;99974.16;5012115;28;20026;-69
2021/08/02 04:42:35;;;;;;;13.23;10.10;;;;;;;25.12;64.13;99984.44;5011965;28;20036;-67
2021/08/02 04:45:01;;;;;;;16.65;9.75;;;;;;;25.13;64.13;99976.44;5011887;28;20037;-67
2021/08/02 04:47:26;;;;;;;15.90;9.70;;;;;;;25.09;64.65;99969.53;5012119;28;20033;-67
2021/08/02 04:49:51;;;;;;;13.20;8.98;;;;;;;24.91;65.36;99956.91;5012130;28;20036;-67
2021/08/02 04:52:17;;;;;;;12.43;9.18;;;;;;;24.79;66.33;99963.44;5011727;28;20030;-67
2021/08/02 04:54:42;;;;;;;14.13;9.15;;;;;;;24.67;67.04;99962.91;5010647;28;20033;-67
2021/08/02 04:57:08;;;;;;;12.18;8.85;;;;;;;24.54;67.56;99961.50;5011713;28;20030;-67
2021/08/02 04:59:33;;;;;;;16.25;8.90;;;;;;;24.52;67.47;99972.09;5011906;28;20408;-67
2021/08/02 05:01:59;;;;;;;10.02;8.27;;;;;;;24.62;66.71;99971.81;5011798;28;20023;-66
2021/08/02 05:04:24;;;;;;;13.57;8.73;;;;;;;24.65;66.33;99975.25;5011789;28;20080;-67
2021/08/02 05:06:50;;;;;;;12.45;8.43;;;;;;;24.72;66.68;99978.56;5011514;28;20050;-67
2021/08/02 05:09:15;;;;;;;13.02;8.55;;;;;;;24.67;66.54;99949.69;5012368;28;20499;-67
2021/08/02 05:11:41;;;;;;;13.70;8.48;;;;;;;24.76;66.13;99939.75;5015443;28;20475;-67
2021/08/02 05:14:06;;;;;;;17.02;8.70;;;;;;;25.06;65.92;99974.94;5015184;28;20018;-65
2021/08/02 05:16:31;;;;;;;10.20;8.43;;;;;;;25.03;64.95;99952.13;5015414;28;20029;-67
2021/08/02 05:18:57;;;;;;;12.50;8.38;;;;;;;25.19;64.73;99970.13;5015514;28;20038;-71
2021/08/02 05:21:22;;;;;;;13.63;8.20;;;;;;;25.14;64.23;99962.34;5015202;28;20030;-67
2021/08/02 05:23:48;;;;;;;14.70;7.55;;;;;;;25.29;64.39;99953.06;5015610;28;20037;-67
2021/08/02 05:26:13;;;;;;;11.00;7.95;;;;;;;25.42;62.90;99950.94;5015327;28;20038;-67
2021/08/02 05:28:39;;;;;;;13.00;7.43;;;;;;;25.63;62.21;99961.69;5012531;28;20104;-67
2021/08/02 05:31:04;;;;;;;11.15;6.60;;;;;;;25.67;61.32;99960.66;5013013;28;20189;-67
2021/08/02 05:33:29;;;;;;;13.82;7.63;;;;;;;25.75;61.27;99948.06;5012759;28;20037;-65
2021/08/02 05:35:55;;;;;;;12.85;7.15;;;;;;;25.91;60.50;99947.53;4996392;28;20514;-67
2021/08/02 05:38:20;;;;;;;12.05;6.50;;;;;;;26.08;59.86;99955.75;5012815;28;20423;-67
2021/08/02 05:40:46;;;;;;;13.30;7.28;;;;;;;26.26;59.16;99963.97;5012883;28;20037;-65
2021/08/02 05:43:11;;;;;;;14.00;7.18;;;;;;;26.36;58.53;99972.44;5012834;28;20038;-65
2021/08/02 05:45:36;;;;;;;9.38;6.80;;;;;;;26.34;57.95;99974.25;5012727;28;20085;-67
2021/08/02 05:48:02;;;;;;;17.45;6.93;;;;;;;26.31;57.70;99946.13;4996260;28;20030;-67
2021/08/02 06:32:59;;;;;;;13.15;7.35;;;;;;;28.11;51.67;99970.81;5013983;28;20041;-67
2021/08/02 06:35:26;;;;;;;13.50;7.72;;;;;;;28.00;51.65;99944.72;5013752;28;20038;-67
2021/08/02 06:37:52;;;;;;;18.25;7.40;;;;;;;28.05;51.52;99940.09;5013820;28;20164;-67
2021/08/02 06:40:18;;;;;;;18.90;7.47;;;;;;;28.23;51.74;99954.38;5013837;28;20034;-67
2021/08/02 06:42:44;;;;;;;16.17;6.88;;;;;;;28.41;49.71;99958.84;5013754;28;20026;-67
2021/08/02 06:45:10;;;;;;;12.57;7.55;;;;;;;28.50;49.18;99952.25;5013830;28;20087;-67
2021/08/02 06:47:37;;;;;;;10.95;6.93;;;;;;;28.65;49.26;99949.78;5013386;28;20057;-67
2021/08/02 06:50:04;;;;;;;12.80;7.15;;;;;;;28.73;49.14;99950.34;5013727;28;20119;-67
2021/08/02 06:52:30;;;;;;;14.02;7.38;;;;;;;28.83;49.22;99945.47;5013491;28;20026;-67
2021/08/02 06:54:55;;;;;;;10.45;6.97;;;;;;;28.80;47.97;99933.19;5014029;28;20041;-67
2021/08/02 06:57:21;;;;;;;11.65;6.53;;;;;;;28.93;47.93;99948.53;5013400;28;20018;-66
2021/08/02 06:59:47;;;;;;;17.73;10.40;;;;;;;29.00;48.85;99949.97;5013563;28;20032;-68
2021/08/02 07:02:12;;;;;;;11.50;7.18;;;;;;;29.17;48.84;99951.78;5013276;28;20029;-66
2021/08/02 07:04:37;;;;;;;15.13;7.28;;;;;;;29.40;47.51;99949.81;5013164;28;20077;-68
2021/08/02 07:07:03;;;;;;;14.57;6.97;;;;;;;29.36;47.60;99930.53;5013565;28;20117;-67
2021/08/02 07:09:30;;;;;;;11.30;7.55;;;;;;;29.67;46.78;99936.94;5013380;28;20025;-67
2021/08/02 07:11:55;;;;;;;11.07;6.88;;;;;;;29.59;46.41;99915.19;5013204;28;20026;-67
2021/08/02 07:14:21;;;;;;;18.52;7.32;;;;;;;29.67;46.23;99928.94;5013078;28;20036;-67
2021/08/02 07:16:46;;;;;;;11.95;6.60;;;;;;;29.78;46.57;99934.56;5013326;28;20026;-66
2021/08/02 07:19:11;;;;;;;10.80;6.93;;;;;;;29.49;46.82;99934.25;5012875;28;20124;-67
2021/08/02 07:21:37;;;;;;;11.02;6.75;;;;;;;29.59;47.83;99941.78;5013287;28;20037;-68
2021/08/02 07:24:03;;;;;;;15.93;7.10;;;;;;;29.70;47.14;99944.75;5013081;28;20033;-67
2021/08/02 07:26:28;;;;;;;13.98;7.57;;;;;;;29.97;45.79;99941.63;5012892;28;20033;-67
2021/08/02 07:29:01;;;;;;;11.48;6.80;;;;;;;30.06;45.90;99949.16;4994399;28;20054;-67
2021/08/02 07:31:27;;;;;;;14.05;7.32;;;;;;;30.13;46.59;99939.91;5012698;28;20513;-67
2021/08/02 07:33:53;;;;;;;11.13;7.35;;;;;;;30.23;45.13;99939.41;5012412;28;20515;-67
2021/08/02 07:36:19;;;;;;;11.93;6.57;;;;;;;30.29;45.52;99947.06;5012794;28;20037;-68
2021/08/02 07:38:44;;;;;;;19.20;7.43;;;;;;;30.45;44.91;99953.25;5013046;28;20030;-66
2021/08/02 07:41:11;;;;;;;13.32;6.85;;;;;;;30.44;44.97;99927.56;5012801;28;20034;-68
2021/08/02 07:43:37;;;;;;;11.25;7.10;;;;;;;30.63;44.51;99939.91;5012901;28;20061;-70
2021/08/02 07:46:03;;;;;;;10.48;7.03;;;;;;;30.72;44.30;99930.53;5010790;28;20480;-67
2021/08/02 07:48:28;;;;;;;14.20;7.90;;;;;;;30.71;43.73;99944.84;5012803;28;20041;-69
2021/08/02 07:50:54;;;;;;;14.65;7.47;;;;;;;30.56;43.54;99944.72;5012708;28;20361;-67
2021/08/02 07:53:19;;;;;;;18.70;7.45;;;;;;;30.49;45.04;99938.88;5012814;28;20188;-67
2021/08/02 07:55:45;;;;;;;12.43;7.05;;;;;;;30.82;44.40;99935.28;5012486;28;20088;-68
2021/08/02 07:58:10;;;;;;;16.83;7.63;;;;;;;30.96;44.28;99929.16;5012411;28;20038;-68
2021/08/02 08:00:37;;;;;;;12.43;7.88;;;;;;;30.84;44.50;99929.00;5012164;28;20076;-66
2021/08/02 08:03:03;;;;;;;13.68;7.55;;;;;;;30.95;42.79;99929.25;5010693;28;20050;-68
2021/08/02 08:05:29;;;;;;;14.95;7.50;;;;;;;31.00;43.95;99927.19;5012522;28;20572;-68
2021/08/02 08:07:55;;;;;;;13.45;7.72;;;;;;;31.11;42.75;99908.78;5010172;28;20528;-68
2021/08/02 08:10:23;;;;;;;15.27;7.25;;;;;;;31.37;42.52;99910.91;4945592;28;20069;-68
2021/08/02 08:12:49;;;;;;;13.20;7.82;;;;;;;31.49;41.82;99907.50;5009850;28;20041;-68
2021/08/02 08:15:18;;;;;;;11.20;7.30;;;;;;;31.65;42.07;99910.13;5009885;28;20030;-68
2021/08/02 08:17:44;;;;;;;10.95;7.03;;;;;;;31.78;42.12;99908.44;5009863;28;20038;-68
2021/08/02 08:20:12;;;;;;;14.32;7.57;;;;;;;32.01;41.75;99906.16;5010167;28;20045;-67
2021/08/02 08:22:38;;;;;;;10.85;7.60;;;;;;;32.02;41.44;99897.19;5009694;28;20137;-68
2021/08/02 08:25:04;;;;;;;14.38;7.40;;;;;;;32.14;40.69;99908.06;5009781;28;20030;-67
2021/08/02 08:27:29;;;;;;;13.10;7.40;;;;;;;32.14;40.47;99908.06;5009759;28;20038;-67
2021/08/02 08:29:55;;;;;;;11.43;7.28;;;;;;;32.13;42.30;99890.31;5009633;28;20111;-68
2021/08/02 08:32:21;;;;;;;13.07;7.95;;;;;;;32.15;40.33;99862.59;5009650;28;20030;-68
2021/08/02 08:58:17;;;;;;;15.05;7.40;;;;;;;32.91;41.79;99860.44;5015995;28;20161;-68
2021/08/02 09:00:43;;;;;;;13.00;7.25;;;;;;;33.07;39.20;99865.63;5015673;28;20536;-68
2021/08/02 09:03:15;;;;;;;19.73;8.00;;;;;;;33.27;39.04;99866.09;5015503;28;20563;-68
2021/08/02 09:05:40;;;;;;;15.27;7.53;;;;;;;33.33;38.92;99865.72;5016074;28;20172;-68
2021/08/02 09:08:12;;;;;;;10.57;7.60;;;;;;;33.31;38.66;99848.91;5015723;28;20092;-68
2021/08/02 09:10:38;;;;;;;16.48;8.32;;;;;;;33.74;36.76;99871.88;5015549;28;20416;-68
2021/08/02 09:13:05;;;;;;;18.77;8.23;;;;;;;33.98;38.31;99866.63;5015641;28;20104;-68
2021/08/02 09:15:42;;;;;;;13.20;7.63;;;;;;;33.95;36.27;99859.66;5015202;28;20464;-71
2021/08/02 09:18:22;;;;;;;17.90;8.15;;;;;;;34.14;35.29;99851.16;5015593;28;20033;-68
2021/08/02 09:20:58;;;;;;;14.48;7.65;;;;;;;34.26;33.01;99854.78;5015448;28;20077;-68
2021/08/02 09:23:24;;;;;;;15.45;7.60;;;;;;;34.41;35.69;99846.63;5015290;28;20022;-68
2021/08/02 09:25:51;;;;;;;11.90;8.55;;;;;;;34.12;35.72;99850.44;5015670;28;20038;-68
2021/08/02 09:28:19;;;;;;;11.90;7.70;;;;;;;34.15;36.00;99847.53;5015028;28;20411;-68
2021/08/02 09:30:55;;;;;;;14.68;8.13;;;;;;;34.30;39.04;99842.03;5015280;28;20109;-68
2021/08/02 09:33:22;;;;;;;14.85;7.45;;;;;;;34.41;33.75;99834.09;5014132;28;20036;-67
2021/08/02 09:35:53;;;;;;;15.13;8.15;;;;;;;34.55;34.77;99830.38;5014996;28;20056;-68
2021/08/02 09:38:21;;;;;;;14.60;8.80;;;;;;;34.77;32.49;99826.09;5015046;28;20092;-68
2021/08/02 09:40:51;;;;;;;16.13;8.50;;;;;;;34.89;31.56;99825.19;5014878;28;20049;-68
2021/08/02 09:43:20;;;;;;;19.35;7.82;;;;;;;35.09;32.92;99817.47;5013784;28;20025;-68
2021/08/02 09:45:53;;;;;;;14.25;7.28;;;;;;;35.13;30.87;99789.44;5015251;28;20037;-68
2021/08/02 09:48:20;;;;;;;18.15;8.00;;;;;;;35.33;32.16;99814.75;5015234;28;20404;-68
2021/08/02 09:50:49;;;;;;;15.10;7.70;;;;;;;35.33;32.87;99819.25;5014972;28;20104;-68
2021/08/02 09:53:17;;;;;;;17.58;7.75;;;;;;;35.41;30.35;99808.81;5014513;28;20543;-67
2021/08/02 09:55:46;;;;;;;17.55;7.65;;;;;;;35.63;30.25;99814.19;5014703;28;20377;-68
2021/08/02 09:58:18;;;;;;;16.20;7.88;;;;;;;35.92;32.49;99808.34;4996346;28;20041;-68
2021/08/02 10:00:45;;;;;;;11.00;7.75;;;;;;;35.89;34.98;99779.06;5014879;28;20026;-68
2021/08/02 10:03:10;;;;;;;15.20;7.82;;;;;;;35.96;34.07;99795.53;5014516;28;20030;-68
2021/08/02 10:05:37;;;;;;;12.85;7.60;;;;;;;36.10;32.37;99794.41;5015019;28;20053;-68
2021/08/02 10:08:05;;;;;;;16.90;7.80;;;;;;;36.22;30.23;99788.03;5014338;28;20064;-69
2021/08/02 10:10:31;;;;;;;17.23;7.50;;;;;;;36.45;34.04;99789.84;5014441;28;20029;-69
2021/08/02 10:12:56;;;;;;;17.58;7.85;;;;;;;36.53;33.88;99790.91;5014598;28;20519;-68
2021/08/02 10:15:29;;;;;;;15.95;7.78;;;;;;;36.63;32.42;99785.63;5014237;28;20033;-68
2021/08/02 10:17:56;;;;;;;15.45;7.03;;;;;;;36.70;32.26;99783.25;5014138;28;20030;-68
2021/08/02 10:20:30;;;;;;;19.92;7.40;;;;;;;36.91;32.19;99788.69;5013944;28;20415;-68
2021/08/02 10:22:57;;;;;;;11.75;7.10;;;;;;;36.86;28.05;99764.03;5014117;28;20087;-68
2021/08/02 10:25:43;;;;;;;14.73;6.90;;;;;;;37.15;30.78;99783.06;5014271;28;20030;-68
2021/08/02 10:28:14;;;;;;;16.35;7.25;;;;;;;37.26;30.24;99770.50;5013814;28;20042;-68
2021/08/02 10:30:46;;;;;;;13.40;6.97;;;;;;;37.48;31.76;99775.75;5013846;28;20049;-68
2021/08/02 10:33:12;;;;;;;19.02;7.50;;;;;;;37.62;29.87;99768.28;5013822;28;20045;-73
2021/08/02 10:35:47;;;;;;;15.68;7.70;;;;;;;37.82;31.15;99774.63;5013943;28;20423;-68
2021/08/02 10:38:17;;;;;;;14.00;7.05;;;;;;;37.86;28.69;99768.84;5013876;28;20034;-68
2021/08/02 10:40:47;;;;;;;13.55;6.60;;;;;;;37.92;31.64;99740.47;5014203;28;20049;-69
2021/08/02 10:43:13;;;;;;;14.85;6.80;;;;;;;38.16;25.77;99758.09;5013807;28;20472;-68
2021/08/02 10:45:46;;;;;;;9.73;6.55;;;;;;;38.23;26.04;99753.88;5013715;28;20392;-68
2021/08/02 10:48:22;;;;;;;13.38;6.47;;;;;;;38.33;25.55;99753.91;5013776;28;20111;-68
2021/08/02 10:50:48;;;;;;;14.00;6.60;;;;;;;38.56;24.89;99745.53;5013672;28;20026;-68
2021/08/02 10:53:17;;;;;;;16.20;6.90;;;;;;;38.61;26.15;99735.19;5013615;28;20109;-68
2021/08/02 10:55:47;;;;;;;;;;;;;;;38.71;27.23;99751.34;5013817;28;20030;-66
2021/08/02 10:58:23;;;;;;;18.77;6.63;;;;;;;38.79;27.00;99741.56;5013736;28;19917;-68
2021/08/02 11:00:55;;;;;;;15.32;6.55;;;;;;;38.98;25.65;99732.63;5012137;28;20037;-68
2021/08/02 11:03:29;;;;;;;12.10;6.85;;;;;;;39.21;24.25;99728.75;5013355;28;20038;-68
2021/08/02 11:06:06;;;;;;;14.60;7.45;;;;;;;39.29;26.43;99729.72;5013446;28;20030;-68
2021/08/02 11:08:51;;;;;;;16.15;7.10;;;;;;;39.33;25.01;99724.84;5012838;28;20065;-69
2021/08/02 11:11:25;;;;;;;22.00;7.30;;;;;;;39.49;23.72;99718.81;5013185;28;20026;-68
2021/08/02 11:14:03;;;;;;;16.52;6.55;;;;;;;39.62;27.02;99716.63;5013505;28;20017;-69
2021/08/02 11:16:29;;;;;;;17.02;7.00;;;;;;;39.57;26.30;99712.69;5013248;28;20057;-68
2021/08/02 11:18:54;;;;;;;16.35;6.32;;;;;;;39.50;25.75;99692.66;5013525;28;20119;-68
2021/08/02 11:21:29;;;;;;;19.58;6.82;;;;;;;39.68;24.67;99711.63;5012201;28;20073;-68
2021/08/02 11:23:54;;;;;;;23.23;6.93;;;;;;;39.74;25.86;99693.00;5013445;28;20075;-68
2021/08/02 11:26:22;;;;;;;18.38;6.82;;;;;;;40.07;22.35;99706.00;5013006;28;20400;-68
2021/08/02 11:28:49;;;;;;;14.52;6.55;;;;;;;40.26;21.78;99702.31;5012185;28;20061;-68
2021/08/02 11:31:16;;;;;;;18.15;6.93;;;;;;;40.34;21.58;99690.72;5012739;28;20037;-68
2021/08/02 11:33:43;;;;;;;21.15;6.68;;;;;;;40.55;20.33;99693.97;5009621;28;20037;-68
2021/08/02 11:36:20;;;;;;;16.08;6.07;;;;;;;40.71;20.53;99687.81;5013044;28;20127;-68
2021/08/02 11:38:47;;;;;;;19.55;6.72;;;;;;;40.62;21.77;99694.19;5012779;28;20030;-68
2021/08/02 11:41:30;;;;;;;19.60;5.82;;;;;;;40.83;20.14;99685.69;5012898;28;20112;-68
2021/08/02 11:43:58;;;;;;;14.60;6.57;;;;;;;40.89;21.19;99682.34;5013195;28;20026;-68
2021/08/02 11:46:24;;;;;;;26.05;6.82;;;;;;;40.80;19.95;99682.47;5012953;28;20037;-68
2021/08/02 11:48:50;;;;;;;14.30;5.88;;;;;;;41.00;23.21;99677.69;5011701;28;20038;-68
2021/08/02 11:51:17;;;;;;;19.92;6.00;;;;;;;41.24;22.47;99677.00;5012762;28;20022;-68
2021/08/02 11:53:43;;;;;;;15.75;6.13;;;;;;;41.26;18.90;99664.13;5012431;28;20033;-68
2021/08/02 11:56:09;;;;;;;23.42;5.80;;;;;;;41.01;18.37;99666.72;5012389;28;20022;-67
2021/08/02 11:58:46;;;;;;;15.85;5.60;;;;;;;41.05;18.90;99659.97;4994106;28;20038;-68
2021/08/02 12:01:13;;;;;;;21.75;6.40;;;;;;;41.20;18.03;99664.78;5012560;28;20111;-67
2021/08/02 12:03:44;;;;;;;20.10;6.38;;;;;;;41.26;19.06;99664.13;5012386;28;20030;-68
2021/08/02 12:06:09;;;;;;;24.50;5.88;;;;;;;41.33;17.62;99654.34;5012337;28;20100;-68
2021/08/02 12:08:35;;;;;;;26.95;6.63;;;;;;;41.60;21.15;99649.72;5012428;28;20484;-70
2021/08/02 12:11:05;;;;;;;21.25;6.18;;;;;;;41.81;19.41;99654.69;5012347;28;20054;-68
2021/08/02 12:13:42;;;;;;;18.13;6.75;;;;;;;41.73;17.14;99651.94;5012623;28;20080;-68
2021/08/02 12:16:12;;;;;;;17.40;5.78;;;;;;;41.74;17.25;99648.22;5012673;28;20025;-68
2021/08/02 12:18:38;;;;;;;16.55;5.40;;;;;;;41.76;17.13;99653.47;5012018;28;20488;-68
2021/08/02 12:21:22;;;;;;;22.92;6.18;;;;;;;41.92;17.54;99653.53;5010805;28;20026;-68
2021/08/02 12:23:49;;;;;;;19.45;6.20;;;;;;;41.95;16.28;99647.78;5012699;28;20029;-68
2021/08/02 12:26:20;;;;;;;23.35;5.78;;;;;;;41.81;16.31;99651.09;5012142;28;20048;-68
2021/08/02 12:28:47;;;;;;;23.75;5.78;;;;;;;41.56;15.91;99648.34;5012043;28;20548;-68
2021/08/02 12:31:14;;;;;;;18.80;5.80;;;;;;;41.27;16.54;99636.03;5011917;28;20112;-68
2021/08/02 12:33:40;;;;;;;24.15;6.03;;;;;;;41.37;18.44;99634.03;5011788;28;20467;-67
2021/08/02 12:36:06;;;;;;;22.30;6.03;;;;;;;41.62;15.67;99636.84;5012316;28;20029;-68